Time;durP1;ratioP1;P1;durP2;ratioP2;P2;SDS_P1;SDS_P2;PMS_P1;PMS_P2;Temp;Humidity;BMP_temperature;BMP_pressure;BME280_temperature;BME280_humidity;BME280_pressure;Samples;Min_cycle;Max_cycle;Signal;HPM_P1;HPM_P2
2023/09/19 00:00:37;;;;;;;8.02;1.65;;;;;;;;;;5027737;28;20070;-73
2023/09/19 00:03:04;;;;;;;7.78;1.70;;;;;;;;;;5015748;28;20533;-73
2023/09/19 00:05:31;;;;;;;8.63;1.88;;;;;;;;;;5026806;28;20120;-73
2023/09/19 00:08:00;;;;;;;8.35;2.38;;;;;;;;;;5030106;28;20051;-73
2023/09/19 00:10:27;;;;;;;9.90;1.80;;;;;;;;;;5026361;28;20044;-73
2023/09/19 00:12:55;;;;;;;9.73;2.42;;;;;;;;;;5021931;28;20040;-73
2023/09/19 00:15:21;;;;;;;11.05;2.45;;;;;;;;;;5020668;28;20138;-73
2023/09/19 00:17:47;;;;;;;9.70;2.33;;;;;;;;;;5022261;28;20049;-73
2023/09/19 00:20:17;;;;;;;12.57;2.10;;;;;;;;;;5019297;28;20036;-73
2023/09/19 00:22:43;;;;;;;7.85;2.08;;;;;;;;;;5023132;28;20048;-73
2023/09/19 00:25:10;;;;;;;9.98;2.03;;;;;;;;;;5023785;28;20040;-73
2023/09/19 00:27:41;;;;;;;20.30;3.08;;;;;;;;;;5024236;28;20085;-73
2023/09/19 00:30:08;;;;;;;4.63;1.90;;;;;;;;;;5024911;28;20615;-73
2023/09/19 00:32:35;;;;;;;11.90;3.05;;;;;;;;;;5023598;28;20053;-73
2023/09/19 00:35:03;;;;;;;9.20;1.70;;;;;;;;;;5024313;28;20132;-73
2023/09/19 00:37:30;;;;;;;12.73;2.42;;;;;;;;;;5024974;28;20047;-71
2023/09/19 00:39:56;;;;;;;10.35;2.22;;;;;;;;;;5022337;28;20658;-73
2023/09/19 00:42:22;;;;;;;10.15;2.45;;;;;;;;;;5025252;28;20187;-73
2023/09/19 00:44:51;;;;;;;11.70;2.42;;;;;;;;;;5023855;28;20037;-72
2023/09/19 00:47:18;;;;;;;12.98;2.50;;;;;;;;;;5023751;28;20972;-72
2023/09/19 00:49:44;;;;;;;11.52;1.90;;;;;;;;;;5017007;28;20071;-72
2023/09/19 00:52:11;;;;;;;14.65;2.60;;;;;;;;;;5025115;28;20041;-73
2023/09/19 00:54:37;;;;;;;11.07;2.35;;;;;;;;;;5024210;28;20052;-72
2023/09/19 00:57:04;;;;;;;8.95;2.25;;;;;;;;;;5027463;28;20056;-73
2023/09/19 00:59:30;;;;;;;8.75;2.25;;;;;;;;;;5024630;28;20048;-73
2023/09/19 01:01:57;;;;;;;11.13;2.30;;;;;;;;;;5022549;28;20036;-73
2023/09/19 01:04:23;;;;;;;5.97;1.65;;;;;;;;;;5022156;28;20106;-73
2023/09/19 01:06:53;;;;;;;8.55;2.15;;;;;;;;;;5019910;28;20060;-73
2023/09/19 01:09:20;;;;;;;9.77;2.08;;;;;;;;;;5025171;28;20099;-73
2023/09/19 01:11:48;;;;;;;7.40;1.95;;;;;;;;;;5023710;28;20079;-72
2023/09/19 01:14:31;;;;;;;9.90;2.75;;;;;;;;;;5021935;28;20105;-72
2023/09/19 01:17:01;;;;;;;9.00;2.38;;;;;;;;;;5024404;28;20045;-73
2023/09/19 01:19:47;;;;;;;10.73;2.45;;;;;;;;;;5021883;28;20051;-73
2023/09/19 01:22:26;;;;;;;11.20;3.17;;;;;;;;;;5025287;28;20519;-73
2023/09/19 01:25:05;;;;;;;7.82;1.88;;;;;;;;;;5018287;28;20037;-73
2023/09/19 01:27:54;;;;;;;6.45;2.00;;;;;;;;;;5022090;28;20183;-72
2023/09/19 01:30:22;;;;;;;11.68;2.33;;;;;;;;;;5015046;28;20052;-73
2023/09/19 01:32:52;;;;;;;13.38;1.90;;;;;;;;;;5027760;28;21935;-72
2023/09/19 01:35:18;;;;;;;14.73;2.40;;;;;;;;;;5025328;28;20131;-73
2023/09/19 01:37:45;;;;;;;8.45;2.00;;;;;;;;;;5024114;28;20640;-73
2023/09/19 01:40:17;;;;;;;11.50;2.22;;;;;;;;;;5031333;28;20172;-73
2023/09/19 01:42:50;;;;;;;13.75;3.35;;;;;;;;;;5022367;28;20046;-72
2023/09/19 01:45:31;;;;;;;14.27;2.42;;;;;;;;;;5024126;28;20039;-73
2023/09/19 01:47:59;;;;;;;7.63;1.88;;;;;;;;;;5027537;28;20045;-73
2023/09/19 01:50:40;;;;;;;9.13;1.80;;;;;;;;;;5018286;28;20041;-73
2023/09/19 01:53:11;;;;;;;10.38;2.00;;;;;;;;;;5026748;28;20800;-74
2023/09/19 01:55:42;;;;;;;8.30;1.88;;;;;;;;;;5026892;28;20041;-72
2023/09/19 01:58:29;;;;;;;10.35;2.30;;;;;;;;;;5026440;28;20114;-73
2023/09/19 02:00:55;;;;;;;13.60;2.70;;;;;;;;;;5019280;28;20063;-73
2023/09/19 02:03:22;;;;;;;12.57;2.08;;;;;;;;;;5027165;28;20048;-73
2023/09/19 02:05:50;;;;;;;11.70;2.25;;;;;;;;;;5021622;28;20045;-73
2023/09/19 02:08:18;;;;;;;14.10;2.50;;;;;;;;;;5003485;28;20053;-72
2023/09/19 02:10:48;;;;;;;9.20;2.70;;;;;;;;;;5028350;28;22118;-73
2023/09/19 02:13:15;;;;;;;5.03;1.90;;;;;;;;;;5029127;28;20538;-73
2023/09/19 02:15:41;;;;;;;15.15;4.10;;;;;;;;;;5028442;28;20041;-72
2023/09/19 02:18:07;;;;;;;12.57;2.63;;;;;;;;;;5027281;28;20051;-73
2023/09/19 02:20:33;;;;;;;12.32;2.20;;;;;;;;;;5028414;28;20033;-73
2023/09/19 02:22:59;;;;;;;7.05;1.52;;;;;;;;;;5025495;28;20040;-73
2023/09/19 02:25:26;;;;;;;10.07;1.65;;;;;;;;;;5028637;28;21224;-73
2023/09/19 02:27:53;;;;;;;8.75;2.63;;;;;;;;;;5028098;28;20124;-72
2023/09/19 02:30:25;;;;;;;9.15;1.98;;;;;;;;;;5027622;28;21012;-73
2023/09/19 02:32:51;;;;;;;18.38;2.58;;;;;;;;;;5027633;28;20854;-72
2023/09/19 02:35:20;;;;;;;15.38;3.25;;;;;;;;;;5027880;28;20060;-73
2023/09/19 02:37:47;;;;;;;9.88;1.73;;;;;;;;;;5010991;28;20416;-73
2023/09/19 02:40:19;;;;;;;10.50;2.30;;;;;;;;;;5006601;28;20040;-74
2023/09/19 02:42:46;;;;;;;14.07;2.17;;;;;;;;;;5025102;28;20037;-73
2023/09/19 02:45:13;;;;;;;15.27;2.88;;;;;;;;;;5023479;28;20041;-74
2023/09/19 02:47:40;;;;;;;7.10;2.15;;;;;;;;;;5024632;28;20040;-72
2023/09/19 02:50:06;;;;;;;9.73;2.03;;;;;;;;;;5023829;28;20058;-74
2023/09/19 02:52:34;;;;;;;10.27;1.52;;;;;;;;;;5022302;28;20072;-74
2023/09/19 02:55:01;;;;;;;11.93;2.55;;;;;;;;;;5020168;28;20060;-73
2023/09/19 02:57:27;;;;;;;8.45;1.58;;;;;;;;;;5022846;28;20155;-73
2023/09/19 02:59:53;;;;;;;11.02;1.75;;;;;;;;;;5022993;28;20045;-73
2023/09/19 03:02:19;;;;;;;12.55;2.33;;;;;;;;;;5025517;28;20123;-73
2023/09/19 03:04:46;;;;;;;9.15;1.80;;;;;;;;;;5005381;28;20053;-73
2023/09/19 03:07:12;;;;;;;11.50;2.20;;;;;;;;;;5025973;28;20053;-73
2023/09/19 03:09:38;;;;;;;10.70;1.63;;;;;;;;;;5023994;28;20045;-73
2023/09/19 03:12:06;;;;;;;6.97;1.73;;;;;;;;;;5007250;28;20044;-73
2023/09/19 03:14:35;;;;;;;10.73;1.85;;;;;;;;;;5021785;28;20163;-73
2023/09/19 03:17:04;;;;;;;13.02;2.28;;;;;;;;;;5022665;28;20048;-73
2023/09/19 03:19:33;;;;;;;7.57;1.90;;;;;;;;;;5023717;28;20049;-73
2023/09/19 03:21:59;;;;;;;6.03;1.50;;;;;;;;;;5021233;28;20507;-73
2023/09/19 03:24:26;;;;;;;6.90;1.42;;;;;;;;;;5002913;28;20041;-73
2023/09/19 03:26:52;;;;;;;8.52;1.85;;;;;;;;;;5022726;28;20053;-73
2023/09/19 03:29:18;;;;;;;9.05;2.00;;;;;;;;;;5024944;28;20094;-73
2023/09/19 03:31:45;;;;;;;10.90;1.80;;;;;;;;;;5020722;28;20142;-73
2023/09/19 03:34:11;;;;;;;7.05;2.08;;;;;;;;;;5009321;28;20068;-73
2023/09/19 03:36:37;;;;;;;7.25;1.50;;;;;;;;;;5021002;28;20936;-74
2023/09/19 03:39:06;;;;;;;7.13;2.05;;;;;;;;;;4998297;28;20052;-72
2023/09/19 03:41:33;;;;;;;6.03;1.60;;;;;;;;;;5005160;28;20140;-73
2023/09/19 03:43:59;;;;;;;9.95;1.98;;;;;;;;;;5026227;28;20072;-73
2023/09/19 03:46:25;;;;;;;17.00;2.53;;;;;;;;;;5022615;28;20121;-72
2023/09/19 03:48:51;;;;;;;11.27;2.00;;;;;;;;;;5021519;28;20059;-73
2023/09/19 03:51:17;;;;;;;10.63;2.05;;;;;;;;;;5022153;28;20045;-73
2023/09/19 03:53:43;;;;;;;7.53;1.75;;;;;;;;;;5022069;28;20041;-72
2023/09/19 03:56:10;;;;;;;6.65;1.67;;;;;;;;;;5020996;28;20048;-73
2023/09/19 03:58:39;;;;;;;10.18;2.42;;;;;;;;;;5019464;28;20531;-72
2023/09/19 04:01:06;;;;;;;10.63;1.90;;;;;;;;;;5024579;28;20045;-72
2023/09/19 04:03:46;;;;;;;10.85;1.83;;;;;;;;;;5023129;28;20138;-72
2023/09/19 04:06:13;;;;;;;9.85;2.33;;;;;;;;;;5023544;28;20523;-72
2023/09/19 04:08:39;;;;;;;11.60;2.47;;;;;;;;;;5021707;28;20053;-73
2023/09/19 04:11:05;;;;;;;14.25;2.30;;;;;;;;;;5019150;28;20041;-74
2023/09/19 04:13:31;;;;;;;8.90;2.47;;;;;;;;;;4989508;28;20127;-73
2023/09/19 04:15:57;;;;;;;9.02;2.08;;;;;;;;;;5023504;28;20079;-73
2023/09/19 04:18:24;;;;;;;12.63;2.38;;;;;;;;;;5002289;28;20072;-72
2023/09/19 04:20:50;;;;;;;8.25;3.13;;;;;;;;;;5013803;28;20420;-72
2023/09/19 04:23:17;;;;;;;8.55;2.38;;;;;;;;;;5023481;28;20037;-72
2023/09/19 04:25:43;;;;;;;10.88;2.67;;;;;;;;;;5023586;28;20057;-71
2023/09/19 04:28:10;;;;;;;8.13;2.17;;;;;;;;;;5025365;28;20489;-71
2023/09/19 04:30:37;;;;;;;12.73;2.88;;;;;;;;;;5030002;28;20199;-71
2023/09/19 04:33:05;;;;;;;5.60;1.67;;;;;;;;;;5030016;28;20049;-72
2023/09/19 04:35:31;;;;;;;9.65;2.40;;;;;;;;;;5026896;28;20800;-72
2023/09/19 04:37:57;;;;;;;9.65;2.20;;;;;;;;;;5028727;28;20396;-72
2023/09/19 04:40:26;;;;;;;8.38;2.13;;;;;;;;;;5028529;28;20036;-71
2023/09/19 04:42:58;;;;;;;9.55;2.10;;;;;;;;;;5029485;28;20052;-72
2023/09/19 04:45:25;;;;;;;10.65;2.50;;;;;;;;;;5028115;28;20436;-71
2023/09/19 04:47:51;;;;;;;11.23;2.15;;;;;;;;;;5027754;28;20064;-71
2023/09/19 04:50:18;;;;;;;5.22;1.88;;;;;;;;;;5027912;28;20045;-71
2023/09/19 04:52:44;;;;;;;12.85;2.47;;;;;;;;;;5033834;28;20049;-72
2023/09/19 04:55:17;;;;;;;13.07;2.15;;;;;;;;;;5029865;28;20040;-71
2023/09/19 04:57:44;;;;;;;6.38;1.50;;;;;;;;;;5025599;28;20079;-71
2023/09/19 05:00:12;;;;;;;10.18;2.33;;;;;;;;;;5030611;28;20045;-72
2023/09/19 05:02:40;;;;;;;9.75;2.10;;;;;;;;;;5029512;28;20641;-71
2023/09/19 05:05:08;;;;;;;4.80;1.80;;;;;;;;;;5010089;28;20082;-71
2023/09/19 05:07:34;;;;;;;14.60;2.53;;;;;;;;;;5024648;28;20076;-71
2023/09/19 05:10:00;;;;;;;13.73;2.63;;;;;;;;;;5027380;28;20045;-71
2023/09/19 05:12:29;;;;;;;5.70;1.85;;;;;;;;;;5030589;28;20040;-71
2023/09/19 05:14:55;;;;;;;10.80;1.90;;;;;;;;;;5014849;28;20466;-72
2023/09/19 05:17:21;;;;;;;13.00;2.35;;;;;;;;;;5001133;28;20099;-71
2023/09/19 05:19:48;;;;;;;10.60;2.70;;;;;;;;;;5025454;28;21036;-71
2023/09/19 05:22:14;;;;;;;8.73;2.63;;;;;;;;;;5011297;28;20045;-71
2023/09/19 05:24:40;;;;;;;14.85;2.97;;;;;;;;;;5023915;28;20065;-71
2023/09/19 05:27:07;;;;;;;7.30;1.50;;;;;;;;;;5028366;28;20049;-71
2023/09/19 05:29:33;;;;;;;9.80;2.10;;;;;;;;;;5011922;28;20076;-72
2023/09/19 05:31:59;;;;;;;12.45;2.40;;;;;;;;;;5026493;28;20041;-70
2023/09/19 05:34:30;;;;;;;17.52;3.38;;;;;;;;;;5034866;28;20071;-72
2023/09/19 05:36:56;;;;;;;10.35;1.67;;;;;;;;;;5032627;28;20056;-72
2023/09/19 05:39:22;;;;;;;8.32;2.33;;;;;;;;;;5027765;28;20580;-73
2023/09/19 05:41:49;;;;;;;7.45;2.13;;;;;;;;;;5023055;28;20129;-72
2023/09/19 05:44:15;;;;;;;13.50;2.60;;;;;;;;;;5033016;28;20032;-73
2023/09/19 05:46:41;;;;;;;8.95;2.45;;;;;;;;;;5030548;28;20044;-73
2023/09/19 05:49:07;;;;;;;8.10;2.55;;;;;;;;;;5030872;28;20127;-73
2023/09/19 05:51:33;;;;;;;9.95;1.92;;;;;;;;;;5016236;28;20055;-72
2023/09/19 05:53:59;;;;;;;12.23;1.98;;;;;;;;;;5031475;28;20048;-72
2023/09/19 05:56:25;;;;;;;7.00;2.15;;;;;;;;;;5030374;28;20048;-72
2023/09/19 05:58:52;;;;;;;10.45;2.47;;;;;;;;;;5024974;28;20072;-73
2023/09/19 06:01:18;;;;;;;9.25;2.35;;;;;;;;;;5029998;28;20086;-73
2023/09/19 06:03:44;;;;;;;13.93;2.80;;;;;;;;;;5032974;28;20044;-73
2023/09/19 06:06:10;;;;;;;10.02;1.95;;;;;;;;;;5029728;28;20484;-73
2023/09/19 06:08:37;;;;;;;8.18;2.00;;;;;;;;;;5032954;28;20056;-72
2023/09/19 06:11:05;;;;;;;10.73;2.13;;;;;;;;;;5030064;28;20053;-72
2023/09/19 06:13:33;;;;;;;9.30;1.85;;;;;;;;;;5030144;28;20064;-72
2023/09/19 06:16:04;;;;;;;9.68;2.35;;;;;;;;;;5007466;28;20049;-73
2023/09/19 06:18:30;;;;;;;11.52;2.78;;;;;;;;;;5030011;28;20048;-73
2023/09/19 06:20:57;;;;;;;10.15;2.17;;;;;;;;;;5028752;28;20049;-73
2023/09/19 06:23:26;;;;;;;11.43;1.98;;;;;;;;;;5024824;28;20048;-74
2023/09/19 06:25:56;;;;;;;9.75;1.83;;;;;;;;;;5032684;28;20091;-73
2023/09/19 06:28:25;;;;;;;11.13;1.98;;;;;;;;;;5035071;28;20077;-73
2023/09/19 06:30:51;;;;;;;13.63;2.70;;;;;;;;;;5020598;28;21446;-74
2023/09/19 06:33:20;;;;;;;9.70;1.95;;;;;;;;;;5034569;28;20052;-74
2023/09/19 06:35:46;;;;;;;15.77;2.85;;;;;;;;;;5034210;28;20178;-74
2023/09/19 06:38:13;;;;;;;10.20;2.22;;;;;;;;;;5034047;28;20072;-75
2023/09/19 06:40:42;;;;;;;11.25;2.42;;;;;;;;;;5033649;28;21989;-75
2023/09/19 06:43:10;;;;;;;10.18;1.98;;;;;;;;;;5017793;28;20120;-73
2023/09/19 06:45:36;;;;;;;13.23;2.30;;;;;;;;;;5029908;28;20099;-73
2023/09/19 06:48:02;;;;;;;11.75;2.20;;;;;;;;;;5030832;28;20040;-74
2023/09/19 06:50:30;;;;;;;12.32;3.25;;;;;;;;;;5011827;28;20515;-74
2023/09/19 06:52:59;;;;;;;11.82;2.42;;;;;;;;;;5031337;28;20048;-73
2023/09/19 06:55:27;;;;;;;9.80;2.10;;;;;;;;;;5008731;28;20045;-73
2023/09/19 06:57:56;;;;;;;7.53;1.90;;;;;;;;;;5030606;28;20075;-73
2023/09/19 07:00:23;;;;;;;8.20;1.90;;;;;;;;;;5028696;28;20072;-74
2023/09/19 07:02:57;;;;;;;13.70;2.85;;;;;;;;;;5023016;28;20107;-74
2023/09/19 07:05:23;;;;;;;9.57;2.22;;;;;;;;;;5030297;28;20505;-73
2023/09/19 07:07:49;;;;;;;19.20;2.90;;;;;;;;;;5029798;28;20078;-74
2023/09/19 07:10:15;;;;;;;14.73;2.60;;;;;;;;;;5019104;28;20543;-73
2023/09/19 07:12:42;;;;;;;8.65;2.20;;;;;;;;;;5011373;28;20147;-74
2023/09/19 07:15:08;;;;;;;9.00;2.78;;;;;;;;;;5013643;28;20604;-74
2023/09/19 07:17:34;;;;;;;6.55;1.60;;;;;;;;;;5028656;28;20153;-74
2023/09/19 07:20:01;;;;;;;13.00;2.38;;;;;;;;;;5013269;28;20055;-74
2023/09/19 07:22:27;;;;;;;10.27;2.20;;;;;;;;;;5030661;28;20423;-75
2023/09/19 07:24:53;;;;;;;12.02;2.50;;;;;;;;;;5017064;28;20043;-74
2023/09/19 07:27:19;;;;;;;11.70;2.33;;;;;;;;;;5027072;28;20158;-74
2023/09/19 07:29:45;;;;;;;20.13;3.13;;;;;;;;;;5020134;28;20404;-74
2023/09/19 07:32:11;;;;;;;10.35;2.00;;;;;;;;;;5030342;28;20807;-74
2023/09/19 07:34:40;;;;;;;11.52;2.08;;;;;;;;;;5029943;28;20159;-74
2023/09/19 07:37:07;;;;;;;13.00;3.28;;;;;;;;;;5030701;28;20063;-74
2023/09/19 07:39:33;;;;;;;10.38;2.65;;;;;;;;;;5013815;28;20052;-74
2023/09/19 07:41:59;;;;;;;8.88;2.15;;;;;;;;;;5029471;28;20049;-74
2023/09/19 07:44:26;;;;;;;11.80;2.67;;;;;;;;;;5025611;28;20075;-74
2023/09/19 07:46:53;;;;;;;7.63;2.20;;;;;;;;;;5026735;28;20162;-74
2023/09/19 07:49:19;;;;;;;15.30;2.28;;;;;;;;;;5031921;28;20116;-73
2023/09/19 07:51:48;;;;;;;16.27;2.80;;;;;;;;;;5033099;28;20406;-75
2023/09/19 07:54:14;;;;;;;13.73;2.33;;;;;;;;;;5033510;28;20082;-74
2023/09/19 07:56:41;;;;;;;10.50;2.35;;;;;;;;;;5018302;28;20040;-74
2023/09/19 07:59:08;;;;;;;9.10;2.22;;;;;;;;;;5030197;28;20049;-75
2023/09/19 08:01:35;;;;;;;10.38;2.92;;;;;;;;;;5017364;28;20751;-74
2023/09/19 08:04:01;;;;;;;13.00;2.15;;;;;;;;;;5030949;28;20049;-73
2023/09/19 08:06:29;;;;;;;11.75;2.60;;;;;;;;;;5033365;28;20646;-74
2023/09/19 08:08:56;;;;;;;11.30;2.67;;;;;;;;;;5033070;28;20143;-73
2023/09/19 08:11:24;;;;;;;14.45;2.15;;;;;;;;;;5034627;28;20040;-74
2023/09/19 08:13:50;;;;;;;9.45;2.17;;;;;;;;;;5031549;28;21354;-74
2023/09/19 08:16:19;;;;;;;11.85;2.60;;;;;;;;;;5018374;28;20429;-73
2023/09/19 08:18:48;;;;;;;13.38;3.10;;;;;;;;;;5031752;28;20480;-73
2023/09/19 08:21:14;;;;;;;11.07;2.45;;;;;;;;;;5030802;28;20052;-73
2023/09/19 08:23:41;;;;;;;15.63;2.88;;;;;;;;;;5031615;28;20036;-73
2023/09/19 08:26:07;;;;;;;10.65;2.25;;;;;;;;;;4999749;28;20041;-73
2023/09/19 08:28:34;;;;;;;13.48;2.70;;;;;;;;;;5034031;28;20048;-73
2023/09/19 08:31:07;;;;;;;17.60;3.65;;;;;;;;;;5034627;28;20060;-73
2023/09/19 08:33:33;;;;;;;10.73;2.45;;;;;;;;;;5033785;28;20179;-73
2023/09/19 08:36:00;;;;;;;10.57;2.28;;;;;;;;;;5030006;28;20540;-73
2023/09/19 08:38:30;;;;;;;12.27;2.40;;;;;;;;;;5028363;28;20053;-73
2023/09/19 08:41:06;;;;;;;8.10;2.60;;;;;;;;;;5029346;28;20041;-72
2023/09/19 08:43:34;;;;;;;9.45;3.03;;;;;;;;;;5013028;28;20741;-73
2023/09/19 08:46:06;;;;;;;8.85;2.25;;;;;;;;;;5029949;28;20134;-73
2023/09/19 08:48:32;;;;;;;9.63;2.55;;;;;;;;;;5028691;28;20041;-73
2023/09/19 08:51:08;;;;;;;13.98;2.42;;;;;;;;;;5024685;28;20060;-73
2023/09/19 08:53:37;;;;;;;12.30;2.85;;;;;;;;;;5024076;28;20083;-73
2023/09/19 08:56:06;;;;;;;11.35;2.40;;;;;;;;;;5027870;28;20045;-73
2023/09/19 08:58:35;;;;;;;12.73;3.30;;;;;;;;;;5026700;28;20060;-73
2023/09/19 09:01:02;;;;;;;10.90;2.58;;;;;;;;;;5026001;28;20462;-73
2023/09/19 09:03:33;;;;;;;7.22;1.83;;;;;;;;;;5023376;28;20388;-73
2023/09/19 09:06:00;;;;;;;10.45;2.30;;;;;;;;;;5029512;28;20040;-73
2023/09/19 09:08:26;;;;;;;13.55;2.50;;;;;;;;;;5025570;28;20076;-73
2023/09/19 09:10:52;;;;;;;13.30;2.55;;;;;;;;;;5027333;28;20048;-73
2023/09/19 09:13:18;;;;;;;6.32;1.80;;;;;;;;;;5028173;28;20120;-73
2023/09/19 09:15:44;;;;;;;13.00;2.25;;;;;;;;;;5025375;28;20144;-73
2023/09/19 09:18:11;;;;;;;9.25;2.20;;;;;;;;;;5028434;28;20067;-73
2023/09/19 09:20:37;;;;;;;10.95;1.95;;;;;;;;;;5013699;28;20044;-73
2023/09/19 09:23:04;;;;;;;16.33;3.05;;;;;;;;;;5034202;28;20510;-73
2023/09/19 09:28:49;;;;;;;10.25;2.58;;;;;;;;;;5030233;28;20137;-73
2023/09/19 09:31:23;;;;;;;8.63;2.53;;;;;;;;;;5030408;28;20090;-74
2023/09/19 09:33:57;;;;;;;11.73;2.63;;;;;;;;;;5031069;28;20393;-74
2023/09/19 09:36:53;;;;;;;10.88;2.63;;;;;;;;;;5032405;28;20051;-78
2023/09/19 09:39:31;;;;;;;15.10;3.80;;;;;;;;;;5037414;28;20109;-80
2023/09/19 09:41:59;;;;;;;9.63;2.72;;;;;;;;;;5037114;28;20436;-81
2023/09/19 09:44:27;;;;;;;11.10;3.08;;;;;;;;;;5035576;28;20045;-86
2023/09/19 09:49:35;;;;;;;16.90;3.20;;;;;;;;;;5038081;28;20064;-81
2023/09/19 09:52:19;;;;;;;19.23;3.65;;;;;;;;;;5021601;28;20037;-84
2023/09/19 09:55:05;;;;;;;20.75;3.70;;;;;;;;;;5031328;28;20780;-81
2023/09/19 09:57:31;;;;;;;13.88;3.30;;;;;;;;;;5016441;28;20558;-82
2023/09/19 09:59:58;;;;;;;10.57;2.60;;;;;;;;;;5018486;28;20469;-81
2023/09/19 10:02:36;;;;;;;13.23;3.17;;;;;;;;;;5035123;28;20239;-83
2023/09/19 10:05:30;;;;;;;9.95;3.28;;;;;;;;;;5016699;28;20049;-80
2023/09/19 10:08:04;;;;;;;8.73;2.15;;;;;;;;;;5036065;28;20048;-84
2023/09/19 10:10:45;;;;;;;9.00;2.75;;;;;;;;;;5037986;28;20049;-83
2023/09/19 10:13:13;;;;;;;9.90;3.10;;;;;;;;;;5034286;28;20467;-86
2023/09/19 10:15:50;;;;;;;5.97;2.10;;;;;;;;;;5020900;28;20049;-85
2023/09/19 10:18:29;;;;;;;11.63;2.45;;;;;;;;;;5037594;28;20072;-83
2023/09/19 10:20:56;;;;;;;9.38;2.53;;;;;;;;;;5039688;28;20428;-85
2023/09/19 10:23:23;;;;;;;15.00;2.42;;;;;;;;;;5042927;28;20072;-85
2023/09/19 10:25:50;;;;;;;10.73;2.53;;;;;;;;;;5021612;28;20033;-83
2023/09/19 10:28:21;;;;;;;9.18;2.30;;;;;;;;;;5036464;28;20132;-84
2023/09/19 10:30:52;;;;;;;11.02;3.15;;;;;;;;;;5039691;28;20045;-84
2023/09/19 10:33:22;;;;;;;12.73;2.75;;;;;;;;;;5035330;28;20057;-83
2023/09/19 10:35:52;;;;;;;6.93;2.20;;;;;;;;;;5020522;28;20128;-80
2023/09/19 10:38:20;;;;;;;8.63;2.60;;;;;;;;;;5027374;28;20071;-84
2023/09/19 10:40:50;;;;;;;10.75;3.38;;;;;;;;;;5045568;28;20045;-86
2023/09/19 10:43:22;;;;;;;9.75;2.55;;;;;;;;;;5026648;28;20040;-81
2023/09/19 10:45:49;;;;;;;9.85;2.10;;;;;;;;;;5004109;28;20029;-83
2023/09/19 10:48:36;;;;;;;12.27;2.97;;;;;;;;;;5036771;28;20041;-85
2023/09/19 10:51:09;;;;;;;17.40;3.25;;;;;;;;;;5018424;28;20053;-82
2023/09/19 10:53:48;;;;;;;11.43;2.70;;;;;;;;;;5038956;28;20397;-86
2023/09/19 10:56:27;;;;;;;12.00;3.08;;;;;;;;;;5039213;28;20040;-86
2023/09/19 10:59:16;;;;;;;10.93;2.88;;;;;;;;;;5028216;28;20053;-82
2023/09/19 11:01:53;;;;;;;12.73;2.72;;;;;;;;;;5036060;28;20044;-87
2023/09/19 11:04:31;;;;;;;8.10;2.38;;;;;;;;;;5042117;28;20048;-88
2023/09/19 11:07:03;;;;;;;17.95;3.65;;;;;;;;;;5047841;28;20061;-84
2023/09/19 11:09:53;;;;;;;8.98;2.22;;;;;;;;;;5044345;28;20059;-85
2023/09/19 11:15:55;;;;;;;7.95;2.63;;;19.10;99.90;;;;;;5034969;28;20045;-85
2023/09/19 11:18:40;;;;;;;11.75;2.72;;;;;;;;;;5017447;28;20045;-83
2023/09/19 11:21:27;;;;;;;10.63;2.58;;;;;;;;;;5039738;28;20397;-82
2023/09/19 11:24:15;;;;;;;8.35;1.92;;;;;;;;;;5045451;28;20457;-82
2023/09/19 11:26:47;;;;;;;9.07;2.58;;;;;;;;;;5019562;28;20101;-81
2023/09/19 11:29:31;;;;;;;11.48;3.38;;;;;;;;;;5038533;28;20691;-85
2023/09/19 11:31:59;;;;;;;;;;;;;;;;;;5042581;28;21358;-81
2023/09/19 11:34:38;;;;;;;9.35;2.85;;;;;;;;;;5038726;28;19920;-82
2023/09/19 11:37:13;;;;;;;10.95;2.30;;;;;;;;;;5020424;28;20048;-80
2023/09/19 11:39:40;;;;;;;12.05;2.80;;;;;;;;;;5023427;28;20041;-83
2023/09/19 11:42:26;;;;;;;11.52;2.53;;;;;;;;;;5041194;28;20532;-86
2023/09/19 11:44:55;;;;;;;8.80;2.05;;;;;;;;;;5016732;28;20187;-79
2023/09/19 11:47:25;;;;;;;10.70;2.83;;;;;;;;;;5042161;28;20048;-79
2023/09/19 11:49:53;;;;;;;16.00;3.08;;;;;;;;;;5037210;28;20041;-83
2023/09/19 11:52:26;;;;;;;11.02;2.30;;;;;;;;;;5028221;28;20223;-83
2023/09/19 11:55:02;;;;;;;11.35;2.53;;;;;;;;;;5039519;28;20041;-81
2023/09/19 11:57:35;;;;;;;9.07;2.17;;;;;;;;;;5027943;28;21890;-83
2023/09/19 12:00:04;;;;;;;7.75;2.00;;;;;;;;;;5044874;28;20068;-84
2023/09/19 12:03:01;;;;;;;10.60;2.08;;;;;;;;;;5020094;28;20122;-85
2023/09/19 12:05:33;;;;;;;10.75;2.15;;;;;;;;;;5016738;28;20045;-82
2023/09/19 12:07:59;;;;;;;13.75;2.35;;;;;;;;;;5030305;28;20067;-82
2023/09/19 12:10:26;;;;;;;10.18;2.67;;;;;;;;;;5044765;28;20102;-83
2023/09/19 12:12:53;;;;;;;12.50;2.42;;;;;;;;;;5023212;28;20049;-80
2023/09/19 12:15:34;;;;;;;6.22;1.90;;;;;;;;;;5034160;28;20558;-86
2023/09/19 12:18:00;;;;;;;24.08;4.18;;;;;;;;;;5039601;28;20519;-87
2023/09/19 12:20:46;;;;;;;14.93;3.00;;;;;;;;;;5033913;28;20041;-86
2023/09/19 12:23:15;;;;;;;12.38;2.75;;;;;;;;;;5032209;28;20781;-81
2023/09/19 12:25:46;;;;;;;10.68;2.45;;;;;;;;;;5032774;28;20051;-82
2023/09/19 12:28:12;;;;;;;13.32;2.80;;;;;;;;;;4992013;28;20060;-83
2023/09/19 12:30:41;;;;;;;10.35;2.38;;;;;;;;;;5020230;28;20097;-85
2023/09/19 12:33:30;;;;;;;10.35;2.47;;;;;;;;;;5007377;28;20047;-83
2023/09/19 12:35:56;;;;;;;10.35;2.45;;;;;;;;;;5014920;28;20708;-85
2023/09/19 12:38:28;;;;;;;13.50;2.50;;;;;;;;;;5031752;28;20044;-83
2023/09/19 12:40:55;;;;;;;11.85;2.53;;;;;;;;;;5035145;28;20153;-85
2023/09/19 12:43:22;;;;;;;3.97;1.48;;;;;;;;;;5030881;28;20591;-82
2023/09/19 12:45:48;;;;;;;9.60;2.08;;;;;;;;;;5034207;28;20214;-85
2023/09/19 12:48:31;;;;;;;8.35;2.08;;;;;;;;;;5034222;28;20076;-82
2023/09/19 12:51:12;;;;;;;12.45;2.70;;;;;;;;;;5036910;28;20634;-85
2023/09/19 12:53:44;;;;;;;7.63;1.40;;;;;;;;;;5012019;28;20692;-86
2023/09/19 12:56:14;;;;;;;7.25;2.53;;;;;;;;;;5035131;28;20063;-85
2023/09/19 12:59:02;;;;;;;12.98;2.72;;;;;;;;;;5020745;28;20182;-85
2023/09/19 13:01:29;;;;;;;9.75;2.20;;;;;;;;;;5039292;28;20883;-85
2023/09/19 13:04:27;;;;;;;9.73;1.77;;;;;;;;;;5022121;28;20047;-85
2023/09/19 13:06:55;;;;;;;14.50;2.60;;;;;;;;;;5021674;28;20044;-82
2023/09/19 13:09:22;;;;;;;5.57;2.03;;;;;;;;;;5019245;28;20040;-82
2023/09/19 13:11:50;;;;;;;12.90;2.65;;;;;;;;;;5037499;28;20099;-82
2023/09/19 13:14:23;;;;;;;8.23;1.88;;;;;;;;;;5038237;28;20049;-85
2023/09/19 13:16:58;;;;;;;10.32;2.53;;;;;;;;;;5022288;28;20546;-82
2023/09/19 13:19:40;;;;;;;7.32;1.80;;;;;;;;;;5017821;28;20052;-83
2023/09/19 13:22:27;;;;;;;10.07;2.55;;;;;;;;;;5021808;28;20045;-84
2023/09/19 13:24:53;;;;;;;8.98;2.17;;;;;;;;;;5037150;28;20056;-84
2023/09/19 13:27:19;;;;;;;5.45;1.65;;;;;;;;;;4997738;28;20037;-84
2023/09/19 13:29:45;;;;;;;3.40;1.42;;;;;;;;;;5019614;28;20102;-83
2023/09/19 13:32:14;;;;;;;7.15;1.67;;;;;;;;;;5018955;28;20044;-84
2023/09/19 13:34:40;;;;;;;9.98;2.20;;;;;;;;;;5036281;28;20061;-83
2023/09/19 13:37:06;;;;;;;4.05;1.80;;;;;;;;;;5011151;28;20084;-84
2023/09/19 13:39:47;;;;;;;8.50;2.22;;;;;;;;;;5003155;28;20040;-83
2023/09/19 13:42:14;;;;;;;6.38;1.67;;;;;;;;;;5034174;28;20033;-85
2023/09/19 13:44:43;;;;;;;8.82;2.47;;;;;;;;;;5007223;28;20120;-86
2023/09/19 13:47:16;;;;;;;10.02;1.75;;;;;;;;;;5010425;28;20041;-85
2023/09/19 13:49:42;;;;;;;8.98;2.00;;;;;;;;;;5045479;28;20052;-86
2023/09/19 13:52:12;;;;;;;4.95;1.67;;;;;;;;;;5036448;28;20067;-85
2023/09/19 13:54:43;;;;;;;6.47;1.92;;;;;;;;;;5034271;28;20068;-85
2023/09/19 13:57:11;;;;;;;6.40;1.50;;;;;;;;;;5039427;28;21630;-85
2023/09/19 13:59:37;;;;;;;7.10;1.70;;;;;;;;;;5017138;28;20053;-85
2023/09/19 14:02:06;;;;;;;5.97;1.80;;;;;;;;;;5003344;28;20041;-84
2023/09/19 14:04:35;;;;;;;7.80;1.98;;;;;;;;;;5022245;28;20041;-87
2023/09/19 14:07:04;;;;;;;6.22;1.83;;;;;;;;;;5003920;28;20063;-84
2023/09/19 14:09:33;;;;;;;3.67;1.70;;;;;;;;;;5034202;28;20032;-86
2023/09/19 14:12:03;;;;;;;10.70;1.80;;;;;;;;;;5017687;28;20044;-85
2023/09/19 14:14:29;;;;;;;3.90;1.33;;;;;;;;;;5018656;28;20048;-81
2023/09/19 14:16:55;;;;;;;6.53;1.52;;;;;;;;;;5032637;28;20105;-82
2023/09/19 14:19:22;;;;;;;5.25;2.00;;;;;;;;;;5030707;28;20372;-83
2023/09/19 14:21:48;;;;;;;7.80;1.88;;;;;;;;;;5030732;28;21018;-81
2023/09/19 14:24:18;;;;;;;4.55;1.45;;;;;;;;;;5016709;28;20044;-79
2023/09/19 14:26:46;;;;;;;7.63;1.73;;;;;;;;;;5030423;28;20040;-80
2023/09/19 14:29:13;;;;;;;7.97;1.75;;;;;;;;;;5032846;28;20073;-80
2023/09/19 14:31:39;;;;;;;5.43;1.73;;;;;;;;;;5009384;28;20048;-81
2023/09/19 14:34:06;;;;;;;4.53;1.35;;;;;;;;;;5014255;28;20049;-84
2023/09/19 14:36:35;;;;;;;6.05;2.22;;;;;;;;;;5012439;28;20056;-76
2023/09/19 14:39:02;;;;;;;5.90;1.38;;;;;;;;;;5015510;28;20068;-76
2023/09/19 14:41:28;;;;;;;6.05;1.58;;;;;;;;;;5028701;28;20218;-77
2023/09/19 14:43:55;;;;;;;5.07;1.67;;;;;;;;;;5029557;28;20547;-76
2023/09/19 14:46:24;;;;;;;4.82;1.40;;;;;;;;;;5030952;28;20449;-76
2023/09/19 14:48:50;;;;;;;9.45;1.55;;;;;;;;;;5031883;28;20064;-76
2023/09/19 14:51:18;;;;;;;4.80;1.42;;;;;;;;;;5028169;28;20602;-77
2023/09/19 14:53:45;;;;;;;4.90;1.88;;;;;;;;;;5029570;28;20566;-76
2023/09/19 14:56:13;;;;;;;9.77;1.63;;;;;;;;;;5028486;28;20057;-77
2023/09/19 14:58:39;;;;;;;8.55;1.48;;;;;;;;;;5025089;28;20063;-76